EST,Max TemperatureF,Mean TemperatureF,Min TemperatureF,Max Dew PointF,MeanDew PointF,Min DewpointF,Max Humidity, Mean Humidity, Min Humidity, Max Sea Level PressureIn, Mean Sea Level PressureIn, Min Sea Level PressureIn, Max VisibilityMiles, Mean VisibilityMiles, Min VisibilityMiles, Max Wind SpeedMPH, Mean Wind SpeedMPH, Max Gust SpeedMPH,PrecipitationIn, CloudCover, Events, WindDirDegrees
2013-2-1,67,55,43,48,40,31,89,65,40,30.32,30.27,30.21,10,10,10,20,9,25,0.00,0,,333
2013-2-2,72,57,41,52,47,37,89,69,49,30.29,30.22,30.14,10,10,10,15,6,18,0.00,1,,347
2013-2-3,70,58,46,50,45,34,93,61,29,30.21,30.13,30.08,10,10,10,15,5,21,0.00,0,,338
2013-2-4,71,56,40,48,41,34,86,58,29,30.14,30.09,30.04,10,10,10,14,4,17,0.00,0,,312
2013-2-5,77,60,43,53,47,37,83,61,38,30.11,30.06,30.03,10,10,10,12,4,16,0.00,0,,224
2013-2-6,78,65,52,64,57,51,100,79,58,30.13,30.08,30.03,10,8,0,15,6,21,0.00,3,Fog,109
2013-2-7,80,68,56,66,62,55,100,80,60,30.09,30.02,29.94,10,10,10,21,9,25,0.00,1,,145
2013-2-8,81,69,57,64,61,57,93,69,45,30.07,29.98,29.90,10,10,10,15,7,22,0.00,1,,244
2013-2-9,75,66,56,61,58,55,100,81,61,30.20,30.13,30.06,10,8,0,17,10,23,0.00,1,Fog,1
2013-2-10,77,72,67,60,57,55,70,60,50,30.29,30.23,30.19,10,10,10,22,13,26,0.00,2,,105
2013-2-11,81,70,59,63,61,56,93,69,45,30.24,30.17,30.11,10,10,10,23,11,28,0.00,3,,143
2013-2-12,86,71,55,68,61,54,100,72,43,30.13,30.07,29.97,10,7,0,20,7,24,0.00,3,Fog,184
2013-2-13,87,77,67,71,66,57,100,74,48,30.00,29.95,29.86,10,8,2,24,11,29,0.00,4,,212
2013-2-14,72,67,61,67,61,57,100,87,73,30.05,29.98,29.94,10,7,1,18,6,24,0.91,8,Rain,332
2013-2-15,66,61,56,61,59,55,100,92,84,30.07,30.01,29.96,10,9,2,14,4,17,0.06,7,Rain,318
2013-2-16,70,59,47,60,50,35,100,67,33,30.09,29.96,29.91,10,9,5,24,10,31,T,3,,294
2013-2-17,55,46,36,35,22,14,70,46,22,30.34,30.26,30.11,10,10,10,24,11,31,0.00,0,,334
2013-2-18,69,54,38,47,38,23,77,60,42,30.35,30.31,30.24,10,10,10,17,8,23,0.00,4,,42
2013-2-19,80,64,48,60,55,44,93,67,40,30.22,30.16,30.08,10,10,6,17,6,23,0.02,4,Rain,204
2013-2-20,75,65,54,63,60,53,100,82,64,30.13,30.10,30.04,10,9,2,10,6,,0.00,2,,3
2013-2-21,79,67,55,67,61,55,100,81,62,30.12,30.06,30.03,10,5,0,14,6,17,0.00,2,Fog,133
2013-2-22,82,71,59,72,65,59,100,85,69,30.12,30.06,30.02,10,6,0,21,9,25,0.00,3,Fog,140
2013-2-23,88,78,67,71,67,61,97,70,42,30.04,29.98,29.90,10,10,9,20,8,25,0.04,3,,193
2013-2-24,87,78,68,70,68,64,100,76,51,30.00,29.95,29.92,10,7,2,15,8,21,0.00,5,,247
2013-2-25,86,77,68,72,69,66,100,76,51,29.91,29.87,29.81,10,8,0,18,9,23,0.00,3,Fog,155
2013-2-26,86,78,69,70,68,65,93,72,51,29.88,29.83,29.78,10,10,10,26,13,37,T,5,,207
2013-2-27,77,67,57,64,60,55,100,77,54,29.97,29.92,29.88,10,7,0,13,6,16,0.00,2,Fog,227
2013-2-28,76,65,53,51,48,39,90,61,31,30.02,29.95,29.89,10,10,10,15,8,22,0.00,1,,288